createdAt,value
2022-10-01T00:01:08.120Z,75.07
2022-10-01T00:03:38.110Z,75.12
2022-10-01T00:06:09.173Z,74.98
2022-10-01T00:08:39.487Z,75.04
2022-10-01T00:11:14.160Z,75.14
2022-10-01T00:13:43.240Z,75.26
2022-10-01T00:16:13.498Z,75.37
2022-10-01T00:18:42.767Z,74.96
2022-10-01T00:21:11.353Z,75.24
2022-10-01T00:23:40.897Z,75.09
2022-10-01T00:26:14.959Z,75.20
2022-10-01T00:28:42.674Z,75.14
2022-10-01T00:31:11.227Z,75.17
2022-10-01T00:33:39.630Z,75.50
2022-10-01T00:36:08.603Z,75.12
2022-10-01T00:38:36.829Z,75.67
2022-10-01T00:41:06.114Z,77.15
2022-10-01T00:43:36.721Z,77.79
2022-10-01T00:46:11.246Z,77.40
2022-10-01T00:48:48.928Z,77.98
2022-10-01T00:51:16.690Z,78.48
2022-10-01T00:53:45.929Z,79.07
2022-10-01T00:56:15.210Z,78.57
2022-10-01T00:58:43.867Z,78.51
2022-10-01T01:01:11.703Z,78.72
2022-10-01T01:03:39.809Z,79.95
2022-10-01T01:06:09.682Z,80.62
2022-10-01T01:08:37.385Z,80.60
2022-10-01T01:11:12.261Z,80.66
2022-10-01T01:13:52.831Z,80.79
2022-10-01T01:16:27.906Z,80.26
2022-10-01T01:19:03.278Z,80.80
2022-10-01T01:21:34.171Z,81.25
2022-10-01T01:24:20.133Z,82.11
2022-10-01T01:27:00.224Z,81.86
2022-10-01T01:29:35.887Z,81.31
2022-10-01T01:32:14.002Z,82.09
2022-10-01T01:34:46.405Z,83.77
2022-10-01T01:37:18.699Z,82.32
2022-10-01T01:39:51.436Z,81.15
2022-10-01T01:42:24.745Z,80.61
2022-10-01T01:44:58.274Z,80.45
2022-10-01T01:47:33.422Z,79.74
2022-10-01T01:50:03.068Z,79.22
2022-10-01T01:52:31.241Z,79.38
2022-10-01T01:54:59.430Z,79.27
2022-10-01T01:57:27.362Z,78.77
2022-10-01T01:59:56.331Z,78.92
2022-10-01T02:02:27.994Z,78.89
2022-10-01T02:05:00.248Z,78.79
2022-10-01T02:08:00.050Z,78.99
2022-10-01T02:10:37.632Z,79.10
2022-10-01T02:13:20.215Z,79.08
2022-10-01T02:16:01.303Z,79.14
2022-10-01T02:18:35.309Z,79.09
2022-10-01T02:21:11.582Z,78.43
2022-10-01T02:23:43.406Z,79.04
2022-10-01T02:26:16.522Z,79.23
2022-10-01T02:28:46.779Z,78.81
2022-10-01T02:31:18.429Z,79.37
2022-10-01T02:33:48.000Z,78.67
2022-10-01T02:36:17.874Z,78.72
2022-10-01T02:38:47.110Z,79.13
2022-10-01T02:41:18.269Z,79.03
2022-10-01T02:43:53.260Z,78.90
2022-10-01T02:46:30.085Z,79.11
2022-10-01T02:48:59.591Z,79.13
2022-10-01T02:51:35.086Z,79.86
2022-10-01T02:54:08.150Z,80.38
2022-10-01T02:57:06.130Z,80.06
2022-10-01T02:59:33.711Z,80.58
2022-10-01T03:02:03.026Z,79.94
2022-10-01T03:04:30.941Z,79.43
2022-10-01T03:07:03.405Z,79.73
2022-10-01T03:09:32.228Z,79.76
2022-10-01T03:12:00.942Z,79.57
2022-10-01T03:14:29.210Z,79.50
2022-10-01T03:16:56.803Z,79.48
2022-10-01T03:19:25.743Z,79.35
2022-10-01T03:21:53.370Z,79.65
2022-10-01T03:24:20.978Z,79.81
2022-10-01T03:26:49.068Z,79.94
2022-10-01T03:29:16.680Z,80.62
2022-10-01T03:31:44.298Z,80.47
2022-10-01T03:34:13.315Z,80.41
2022-10-01T03:36:42.401Z,81.14
2022-10-01T03:39:10.041Z,81.24
2022-10-01T03:41:37.878Z,81.51
2022-10-01T03:44:05.873Z,81.37
2022-10-01T03:46:33.450Z,81.90
2022-10-01T03:49:01.161Z,82.21
2022-10-01T03:51:29.188Z,81.71
2022-10-01T03:53:58.857Z,82.23
2022-10-01T03:56:26.722Z,82.21
2022-10-01T03:58:54.453Z,82.37
2022-10-01T04:01:22.975Z,82.56
2022-10-01T04:03:51.148Z,83.28
2022-10-01T04:06:19.194Z,82.85
2022-10-01T04:08:46.991Z,82.88
2022-10-01T04:11:15.908Z,82.94
2022-10-01T04:13:43.552Z,82.75
2022-10-01T04:16:11.284Z,83.17
2022-10-01T04:18:38.940Z,83.31
2022-10-01T04:21:06.753Z,82.80
2022-10-01T04:23:34.311Z,83.05
2022-10-01T04:26:03.062Z,83.21
2022-10-01T04:28:32.731Z,82.52
2022-10-01T04:31:14.490Z,82.46
2022-10-01T04:33:42.263Z,83.06
2022-10-01T04:36:09.843Z,82.94
2022-10-01T04:38:37.525Z,82.54
2022-10-01T04:41:05.252Z,82.74
2022-10-01T04:43:34.437Z,82.72
2022-10-01T04:46:01.985Z,81.99
2022-10-01T04:48:29.589Z,82.30
2022-10-01T04:50:57.124Z,82.72
2022-10-01T04:53:24.765Z,82.70
2022-10-01T04:55:52.345Z,82.56
2022-10-01T04:58:20.020Z,83.01
2022-10-01T05:00:49.784Z,82.95
2022-10-01T05:03:17.497Z,82.62
2022-10-01T05:05:45.547Z,82.65
2022-10-01T05:08:13.110Z,82.86
2022-10-01T05:10:40.682Z,82.79
2022-10-01T05:13:08.421Z,83.07
2022-10-01T05:15:36.749Z,83.18
2022-10-01T05:18:05.680Z,82.94
2022-10-01T05:20:33.985Z,83.07
2022-10-01T05:23:01.688Z,83.74
2022-10-01T05:25:29.293Z,83.90
2022-10-01T05:28:05.061Z,83.93
2022-10-01T05:30:33.503Z,83.84
2022-10-01T05:33:02.652Z,83.57
2022-10-01T05:35:32.630Z,83.26
2022-10-01T05:38:02.627Z,83.68
2022-10-01T05:40:31.364Z,83.21
2022-10-01T05:43:00.524Z,83.39
2022-10-01T05:45:29.095Z,83.37
2022-10-01T05:47:58.553Z,83.57
2022-10-01T05:50:26.669Z,83.78
2022-10-01T05:52:55.956Z,83.39
2022-10-01T05:55:24.166Z,83.62
2022-10-01T05:57:56.555Z,83.93
2022-10-01T06:00:24.264Z,84.42
2022-10-01T06:02:53.174Z,84.51
2022-10-01T06:05:21.531Z,84.99
2022-10-01T06:07:49.652Z,84.63
2022-10-01T06:10:19.286Z,84.26
2022-10-01T06:12:46.882Z,85.13
2022-10-01T06:15:14.573Z,85.94
2022-10-01T06:17:44.932Z,86.88
2022-10-01T06:20:14.851Z,86.99
2022-10-01T06:22:43.155Z,87.23
2022-10-01T06:25:12.114Z,86.28
2022-10-01T06:27:41.069Z,86.81
2022-10-01T06:30:09.714Z,87.60
2022-10-01T06:32:37.365Z,87.12
2022-10-01T06:35:05.593Z,88.24
2022-10-01T06:37:33.150Z,87.95
2022-10-01T06:40:00.985Z,87.69
2022-10-01T06:42:28.518Z,88.46
2022-10-01T06:44:57.582Z,89.12
2022-10-01T06:47:25.317Z,88.35
2022-10-01T06:49:52.912Z,89.14
2022-10-01T06:52:37.925Z,87.67
2022-10-01T06:55:06.204Z,88.11
2022-10-01T06:57:34.312Z,87.99
2022-10-01T07:00:03.326Z,87.87
2022-10-01T07:02:32.152Z,87.30
2022-10-01T07:05:00.111Z,88.58
2022-10-01T07:07:30.738Z,87.83
2022-10-01T07:09:59.102Z,88.33
2022-10-01T07:12:27.151Z,87.70
2022-10-01T07:14:55.320Z,88.14
2022-10-01T07:17:24.623Z,88.92
2022-10-01T07:19:52.409Z,88.92
2022-10-01T07:22:20.438Z,88.90
2022-10-01T07:24:48.295Z,89.27
2022-10-01T07:27:15.945Z,89.55
2022-10-01T07:29:43.732Z,88.37
2022-10-01T07:32:11.896Z,89.24
2022-10-01T07:34:41.193Z,88.85
2022-10-01T07:37:09.860Z,89.66
2022-10-01T07:39:37.988Z,89.36
2022-10-01T07:42:05.916Z,90.54
2022-10-01T07:44:33.849Z,89.34
2022-10-01T07:47:01.833Z,88.95
2022-10-01T07:49:29.552Z,89.31
2022-10-01T07:51:59.020Z,87.72
2022-10-01T07:54:27.028Z,88.93
2022-10-01T07:56:55.828Z,89.71
2022-10-01T07:59:23.449Z,89.29
2022-10-01T08:01:51.624Z,89.21
2022-10-01T08:04:37.878Z,89.85
2022-10-01T08:07:07.971Z,89.18
2022-10-01T08:09:35.973Z,91.35
2022-10-01T08:12:03.800Z,90.66
2022-10-01T08:14:31.395Z,89.98
2022-10-01T08:16:59.026Z,90.56
2022-10-01T08:19:26.636Z,91.06
2022-10-01T08:21:54.214Z,91.44
2022-10-01T08:24:23.134Z,92.46
2022-10-01T08:26:54.407Z,92.23
2022-10-01T08:29:22.016Z,92.07
2022-10-01T08:31:50.186Z,90.93
2022-10-01T08:34:17.897Z,91.42
2022-10-01T08:36:45.773Z,93.29
2022-10-01T08:39:14.776Z,91.95
2022-10-01T08:41:56.022Z,92.28
2022-10-01T08:44:29.488Z,91.35
2022-10-01T08:47:01.171Z,93.30
2022-10-01T08:49:36.109Z,91.16
2022-10-01T08:52:13.274Z,91.35
2022-10-01T08:54:45.638Z,92.83
2022-10-01T08:57:17.067Z,92.83
2022-10-01T08:59:47.148Z,93.22
2022-10-01T09:02:20.385Z,93.11
2022-10-01T09:04:49.256Z,94.40
2022-10-01T09:07:30.955Z,94.81
2022-10-01T09:10:05.618Z,95.32
2022-10-01T09:12:48.299Z,95.42
2022-10-01T09:15:23.610Z,95.13
2022-10-01T09:18:02.658Z,95.52
2022-10-01T09:20:36.261Z,95.40
2022-10-01T09:23:18.539Z,96.77
2022-10-01T09:25:50.338Z,96.71
2022-10-01T09:28:21.794Z,95.43
2022-10-01T09:30:56.778Z,96.26
2022-10-01T09:33:30.577Z,96.25
2022-10-01T09:36:07.294Z,97.06
2022-10-01T09:38:39.450Z,97.34
2022-10-01T09:41:09.051Z,98.17
2022-10-01T09:43:40.662Z,98.82
2022-10-01T09:46:13.471Z,99.72
2022-10-01T09:48:46.557Z,99.73
2022-10-01T09:51:18.526Z,99.59
2022-10-01T09:53:58.453Z,100.00
2022-10-01T09:56:31.818Z,98.78
2022-10-01T09:59:07.570Z,99.26
2022-10-01T10:01:43.117Z,100.00
2022-10-01T10:04:10.965Z,100.00
2022-10-01T10:06:40.258Z,100.00
2022-10-01T10:09:16.738Z,100.00
2022-10-01T10:11:45.389Z,100.00
2022-10-01T10:14:19.996Z,100.00
2022-10-01T10:16:49.725Z,100.00
2022-10-01T10:19:23.447Z,99.45
2022-10-01T10:21:53.055Z,100.00
2022-10-01T10:24:26.554Z,100.00
2022-10-01T10:26:57.195Z,99.66
2022-10-01T10:29:31.624Z,100.00
2022-10-01T10:32:00.792Z,100.00
2022-10-01T10:34:34.211Z,100.00
2022-10-01T10:37:05.742Z,100.00
2022-10-01T10:39:37.605Z,100.00
2022-10-01T10:42:07.148Z,100.00
2022-10-01T10:44:39.845Z,100.00
2022-10-01T10:47:12.015Z,100.00
2022-10-01T10:49:46.217Z,100.00
2022-10-01T10:52:20.924Z,100.00
2022-10-01T10:54:50.343Z,100.00
2022-10-01T10:57:22.139Z,100.00
2022-10-01T10:59:59.459Z,100.00
2022-10-01T11:02:30.067Z,100.00
2022-10-01T11:04:59.810Z,100.00
2022-10-01T11:07:28.526Z,100.00
2022-10-01T11:10:12.827Z,100.00
2022-10-01T11:12:57.960Z,100.00
2022-10-01T11:15:43.465Z,100.00
2022-10-01T11:18:24.603Z,100.00
2022-10-01T11:21:02.567Z,100.00
2022-10-01T11:23:59.203Z,100.00
2022-10-01T11:26:35.074Z,100.00
2022-10-01T11:29:17.676Z,100.00
2022-10-01T11:31:58.916Z,100.00
2022-10-01T11:34:55.982Z,100.00
2022-10-01T11:37:36.330Z,100.00
2022-10-01T11:40:14.140Z,100.00
2022-10-01T11:42:45.230Z,100.00
2022-10-01T11:45:19.508Z,100.00
2022-10-01T11:47:53.231Z,100.00
2022-10-01T11:50:25.186Z,100.00
2022-10-01T11:52:57.681Z,100.00
2022-10-01T11:55:46.680Z,100.00
2022-10-01T11:58:37.507Z,100.00
2022-10-01T12:01:11.722Z,100.00
2022-10-01T12:03:55.947Z,100.00
2022-10-01T12:06:32.987Z,100.00
2022-10-01T12:09:07.023Z,100.00
2022-10-01T12:11:40.254Z,100.00
2022-10-01T12:14:16.604Z,100.00
2022-10-01T12:16:50.377Z,100.00
2022-10-01T12:19:24.974Z,100.00
2022-10-01T12:21:57.481Z,100.00
2022-10-01T12:24:31.169Z,100.00
2022-10-01T12:27:07.993Z,100.00
2022-10-01T12:29:46.276Z,100.00
2022-10-01T12:32:21.882Z,100.00
2022-10-01T12:35:00.699Z,100.00
2022-10-01T12:37:40.424Z,100.00
2022-10-01T12:40:21.897Z,100.00
2022-10-01T12:43:18.797Z,100.00
2022-10-01T12:45:53.228Z,100.00
2022-10-01T12:48:27.757Z,100.00
2022-10-01T12:51:15.953Z,100.00
2022-10-01T12:53:49.647Z,100.00
2022-10-01T12:56:22.985Z,100.00
2022-10-01T12:59:07.158Z,100.00
2022-10-01T13:01:45.369Z,100.00
2022-10-01T13:04:31.667Z,100.00
2022-10-01T13:07:19.333Z,100.00
2022-10-01T13:09:56.083Z,100.00
2022-10-01T13:12:56.541Z,100.00
2022-10-01T13:15:28.251Z,100.00
2022-10-01T13:18:02.519Z,100.00
2022-10-01T13:20:37.581Z,100.00
2022-10-01T13:23:13.406Z,100.00
2022-10-01T13:25:46.662Z,100.00
2022-10-01T13:28:22.209Z,100.00
2022-10-01T13:30:58.982Z,100.00
2022-10-01T13:33:28.930Z,100.00
2022-10-01T13:35:59.375Z,100.00
2022-10-01T13:38:42.680Z,100.00
2022-10-01T13:41:20.272Z,100.00
2022-10-01T13:43:56.727Z,100.00
2022-10-01T13:46:29.365Z,100.00
2022-10-01T13:48:57.624Z,100.00
2022-10-01T13:51:36.085Z,100.00
2022-10-01T13:54:10.082Z,100.00
2022-10-01T13:56:38.754Z,100.00
2022-10-01T13:59:27.729Z,100.00
2022-10-01T14:01:55.460Z,100.00
2022-10-01T14:04:31.267Z,100.00
2022-10-01T14:07:03.353Z,100.00
2022-10-01T14:09:36.131Z,100.00
2022-10-01T14:12:23.643Z,100.00
2022-10-01T14:15:11.534Z,100.00
2022-10-01T14:17:39.710Z,100.00
2022-10-01T14:20:08.663Z,100.00
2022-10-01T14:22:58.563Z,100.00
2022-10-01T14:25:45.123Z,100.00
2022-10-01T14:28:26.208Z,100.00
2022-10-01T14:31:03.129Z,100.00
2022-10-01T14:33:54.184Z,100.00
2022-10-01T14:36:29.457Z,100.00
2022-10-01T14:39:05.512Z,100.00
2022-10-01T14:41:35.931Z,100.00
2022-10-01T14:44:03.595Z,100.00
2022-10-01T14:46:31.204Z,100.00
2022-10-01T14:49:00.650Z,100.00
2022-10-01T14:51:30.694Z,100.00
2022-10-01T14:54:00.754Z,100.00
2022-10-01T14:56:29.929Z,100.00
2022-10-01T14:59:03.296Z,100.00
2022-10-01T15:01:31.092Z,100.00
2022-10-01T15:03:58.799Z,100.00
2022-10-01T15:06:29.726Z,100.00
2022-10-01T15:09:09.078Z,100.00
2022-10-01T15:11:38.975Z,100.00
2022-10-01T15:14:17.680Z,100.00
2022-10-01T15:16:45.727Z,100.00
2022-10-01T15:19:16.124Z,100.00
2022-10-01T15:21:50.934Z,100.00
2022-10-01T15:24:24.897Z,100.00
2022-10-01T15:26:54.786Z,100.00
2022-10-01T15:29:24.561Z,100.00
2022-10-01T15:31:54.708Z,100.00
2022-10-01T15:34:25.293Z,100.00
2022-10-01T15:36:54.369Z,100.00
2022-10-01T15:39:30.278Z,100.00
2022-10-01T15:41:59.088Z,100.00
2022-10-01T15:44:42.850Z,100.00
2022-10-01T15:47:34.830Z,100.00
2022-10-01T15:50:05.502Z,100.00
2022-10-01T15:52:52.489Z,100.00
2022-10-01T15:55:23.760Z,100.00
2022-10-01T15:57:53.508Z,100.00
2022-10-01T16:00:28.035Z,100.00
2022-10-01T16:02:57.806Z,100.00
2022-10-01T16:05:27.733Z,100.00
2022-10-01T16:07:58.222Z,100.00
2022-10-01T16:10:44.831Z,100.00
2022-10-01T16:13:31.044Z,100.00
2022-10-01T16:16:20.610Z,100.00
2022-10-01T16:18:53.914Z,100.00
2022-10-01T16:21:22.998Z,100.00
2022-10-01T16:23:52.978Z,100.00
2022-10-01T16:26:39.575Z,100.00
2022-10-01T16:29:22.663Z,100.00
2022-10-01T16:31:52.210Z,100.00
2022-10-01T16:34:21.390Z,100.00
2022-10-01T16:36:50.177Z,100.00
2022-10-01T16:39:18.078Z,100.00
2022-10-01T16:42:06.277Z,100.00
2022-10-01T16:44:39.942Z,100.00
2022-10-01T16:47:11.164Z,100.00
2022-10-01T16:49:38.842Z,100.00
2022-10-01T16:52:06.561Z,100.00
2022-10-01T16:54:34.317Z,100.00
2022-10-01T16:57:02.018Z,100.00
2022-10-01T16:59:30.074Z,100.00
2022-10-01T17:01:58.223Z,100.00
2022-10-01T17:04:33.363Z,100.00
2022-10-01T17:07:01.685Z,100.00
2022-10-01T17:09:29.322Z,100.00
2022-10-01T17:11:57.949Z,100.00
2022-10-01T17:14:25.830Z,100.00
2022-10-01T17:16:53.515Z,100.00
2022-10-01T17:19:21.913Z,100.00
2022-10-01T17:21:51.078Z,100.00
2022-10-01T17:24:18.670Z,100.00
2022-10-01T17:26:47.435Z,100.00
2022-10-01T17:29:15.175Z,100.00
2022-10-01T17:31:44.827Z,100.00
2022-10-01T17:34:13.126Z,100.00
2022-10-01T17:36:40.994Z,100.00
2022-10-01T17:39:12.852Z,100.00
2022-10-01T17:41:40.499Z,100.00
2022-10-01T17:44:08.090Z,100.00
2022-10-01T17:46:35.832Z,100.00
2022-10-01T17:49:03.776Z,100.00
2022-10-01T17:51:31.404Z,100.00
2022-10-01T17:53:59.742Z,100.00
2022-10-01T17:56:29.775Z,100.00
2022-10-01T17:58:57.352Z,100.00
2022-10-01T18:01:25.292Z,100.00
2022-10-01T18:03:54.867Z,100.00
2022-10-01T18:06:22.535Z,100.00
2022-10-01T18:08:57.121Z,100.00
2022-10-01T18:11:26.303Z,100.00
2022-10-01T18:13:55.308Z,100.00
2022-10-01T18:16:23.708Z,100.00
2022-10-01T18:21:43.365Z,100.00
2022-10-01T18:24:11.174Z,100.00
2022-10-01T18:26:39.111Z,100.00
2022-10-01T18:29:08.525Z,100.00
2022-10-01T18:31:38.346Z,100.00
2022-10-01T18:34:16.082Z,100.00
2022-10-01T18:36:54.457Z,100.00
2022-10-01T18:39:27.688Z,100.00
2022-10-01T18:41:55.377Z,100.00
2022-10-01T18:44:25.796Z,100.00
2022-10-01T18:47:04.884Z,100.00
2022-10-01T18:49:55.961Z,100.00
2022-10-01T18:52:33.909Z,100.00
2022-10-01T18:55:30.311Z,100.00
2022-10-01T18:58:15.160Z,100.00
2022-10-01T19:00:51.762Z,100.00
2022-10-01T19:03:39.949Z,100.00
2022-10-01T19:06:33.428Z,100.00
2022-10-01T19:09:23.346Z,100.00
2022-10-01T19:12:00.801Z,100.00
2022-10-01T19:14:47.343Z,100.00
2022-10-01T19:17:28.729Z,100.00
2022-10-01T19:20:14.357Z,100.00
2022-10-01T19:22:56.844Z,100.00
2022-10-01T19:25:31.543Z,100.00
2022-10-01T19:28:15.382Z,100.00
2022-10-01T19:30:54.592Z,100.00
2022-10-01T19:33:24.131Z,100.00
2022-10-01T19:35:58.356Z,100.00
2022-10-01T19:38:33.510Z,100.00
2022-10-01T19:41:04.510Z,100.00
2022-10-01T19:43:38.742Z,100.00
2022-10-01T19:46:11.897Z,100.00
2022-10-01T19:48:47.095Z,100.00
2022-10-01T19:51:17.702Z,100.00
2022-10-01T19:53:49.534Z,100.00
2022-10-01T19:56:24.193Z,100.00
2022-10-01T19:58:51.809Z,100.00
2022-10-01T20:01:22.709Z,100.00
2022-10-01T20:03:58.615Z,100.00
2022-10-01T20:06:31.372Z,100.00
2022-10-01T20:09:01.230Z,100.00
2022-10-01T20:11:31.637Z,100.00
2022-10-01T20:14:37.171Z,100.00
2022-10-01T20:17:13.183Z,100.00
2022-10-01T20:19:51.408Z,100.00
2022-10-01T20:22:28.402Z,100.00
2022-10-01T20:25:03.888Z,100.00
2022-10-01T20:27:49.053Z,100.00
2022-10-01T20:30:20.077Z,100.00
2022-10-01T20:32:57.527Z,100.00
2022-10-01T20:35:35.053Z,100.00
2022-10-01T20:38:10.946Z,100.00
2022-10-01T20:40:49.423Z,100.00
2022-10-01T20:43:21.560Z,100.00
2022-10-01T20:45:52.464Z,100.00
2022-10-01T20:48:25.063Z,100.00
2022-10-01T20:50:58.436Z,100.00
2022-10-01T20:53:33.888Z,100.00
2022-10-01T20:56:06.016Z,100.00
2022-10-01T20:58:44.482Z,100.00
2022-10-01T21:01:18.548Z,100.00
2022-10-01T21:03:48.653Z,100.00
2022-10-01T21:06:21.785Z,100.00
2022-10-01T21:08:53.491Z,100.00
2022-10-01T21:11:29.141Z,100.00
2022-10-01T21:14:04.085Z,100.00
2022-10-01T21:16:46.326Z,100.00
2022-10-01T21:19:26.595Z,99.96
2022-10-01T21:22:05.763Z,99.95
2022-10-01T21:24:48.505Z,99.98
2022-10-01T21:27:31.309Z,99.77
2022-10-01T21:30:08.723Z,99.58
2022-10-01T21:32:52.073Z,99.49
2022-10-01T21:35:29.011Z,100.00
2022-10-01T21:38:05.738Z,99.94
2022-10-01T21:40:48.573Z,99.69
2022-10-01T21:43:35.508Z,99.75
2022-10-01T21:46:11.577Z,100.00
2022-10-01T21:48:47.498Z,99.79
2022-10-01T21:51:18.349Z,99.79
2022-10-01T21:54:03.685Z,100.00
2022-10-01T21:56:54.987Z,100.00
2022-10-01T21:59:41.175Z,99.81
2022-10-01T22:02:20.510Z,100.00
2022-10-01T22:04:51.643Z,99.38
2022-10-01T22:07:23.878Z,99.50
2022-10-01T22:10:04.131Z,98.91
2022-10-01T22:12:36.130Z,98.63
2022-10-01T22:15:16.719Z,98.33
2022-10-01T22:17:46.069Z,98.55
2022-10-01T22:20:15.223Z,98.31
2022-10-01T22:22:43.745Z,97.85
2022-10-01T22:25:14.782Z,97.45
2022-10-01T22:27:51.954Z,98.05
2022-10-01T22:30:22.104Z,98.77
2022-10-01T22:32:56.691Z,97.83
2022-10-01T22:35:30.541Z,97.41
2022-10-01T22:38:03.495Z,98.33
2022-10-01T22:40:39.635Z,98.80
2022-10-01T22:43:11.381Z,98.59
2022-10-01T22:45:52.792Z,97.30
2022-10-01T22:48:35.751Z,98.82
2022-10-01T22:51:13.452Z,98.95
2022-10-01T22:53:53.684Z,98.92
2022-10-01T22:56:29.587Z,98.93
2022-10-01T22:59:08.634Z,97.69
2022-10-01T23:01:46.224Z,97.97
2022-10-01T23:04:32.591Z,99.51
2022-10-01T23:07:11.014Z,99.07
2022-10-01T23:09:44.728Z,99.45
2022-10-01T23:12:21.626Z,98.55
2022-10-01T23:15:00.275Z,97.67
2022-10-01T23:17:33.920Z,97.75
2022-10-01T23:20:12.296Z,98.24
2022-10-01T23:22:54.036Z,97.26
2022-10-01T23:25:35.429Z,98.04
2022-10-01T23:28:19.263Z,99.91
2022-10-01T23:30:59.485Z,100.00
2022-10-01T23:33:44.932Z,99.56
2022-10-01T23:36:24.015Z,99.32
2022-10-01T23:39:17.473Z,98.18
2022-10-01T23:41:50.169Z,97.84
2022-10-01T23:44:29.679Z,99.48
2022-10-01T23:46:59.972Z,99.16
2022-10-01T23:49:33.263Z,99.60
2022-10-01T23:52:06.538Z,98.78
2022-10-01T23:54:39.407Z,99.61
2022-10-01T23:57:12.821Z,100.00
2022-10-01T23:59:46.848Z,100.00
